sensor_id;sensor_type;location;lat;lon;timestamp;P1;durP1;ratioP1;P2;durP2;ratioP2
78875;SDS011;68253;52.506;5.486;2023-05-20T00:00:57;6.90;;;2.00;;
78875;SDS011;68253;52.506;5.486;2023-05-20T00:03:23;8.88;;;2.75;;
78875;SDS011;68253;52.506;5.486;2023-05-20T00:05:49;8.13;;;2.10;;
78875;SDS011;68253;52.506;5.486;2023-05-20T00:08:17;8.25;;;2.65;;
78875;SDS011;68253;52.506;5.486;2023-05-20T00:10:43;9.20;;;2.70;;
78875;SDS011;68253;52.506;5.486;2023-05-20T00:13:10;9.55;;;2.10;;
78875;SDS011;68253;52.506;5.486;2023-05-20T00:15:36;7.40;;;2.10;;
78875;SDS011;68253;52.506;5.486;2023-05-20T00:18:02;7.55;;;2.53;;
78875;SDS011;68253;52.506;5.486;2023-05-20T00:20:29;7.07;;;2.55;;
78875;SDS011;68253;52.506;5.486;2023-05-20T00:22:55;6.22;;;1.95;;
78875;SDS011;68253;52.506;5.486;2023-05-20T00:25:21;10.30;;;3.17;;
78875;SDS011;68253;52.506;5.486;2023-05-20T00:27:47;7.65;;;2.30;;
78875;SDS011;68253;52.506;5.486;2023-05-20T00:30:13;7.35;;;2.10;;
78875;SDS011;68253;52.506;5.486;2023-05-20T00:32:40;8.98;;;2.30;;
78875;SDS011;68253;52.506;5.486;2023-05-20T00:35:06;8.80;;;2.30;;
78875;SDS011;68253;52.506;5.486;2023-05-20T00:37:32;9.15;;;2.58;;
78875;SDS011;68253;52.506;5.486;2023-05-20T00:39:59;7.40;;;2.03;;
78875;SDS011;68253;52.506;5.486;2023-05-20T00:42:26;8.32;;;2.40;;
78875;SDS011;68253;52.506;5.486;2023-05-20T00:44:53;8.35;;;2.00;;
78875;SDS011;68253;52.506;5.486;2023-05-20T00:47:22;8.77;;;2.15;;
78875;SDS011;68253;52.506;5.486;2023-05-20T00:49:53;7.85;;;2.00;;
78875;SDS011;68253;52.506;5.486;2023-05-20T00:52:19;9.55;;;2.50;;
78875;SDS011;68253;52.506;5.486;2023-05-20T00:54:46;8.82;;;2.35;;
78875;SDS011;68253;52.506;5.486;2023-05-20T00:57:15;10.90;;;2.75;;
78875;SDS011;68253;52.506;5.486;2023-05-20T00:59:41;7.88;;;2.13;;
78875;SDS011;68253;52.506;5.486;2023-05-20T01:02:07;8.05;;;2.30;;
78875;SDS011;68253;52.506;5.486;2023-05-20T01:04:34;8.77;;;2.30;;
78875;SDS011;68253;52.506;5.486;2023-05-20T01:07:01;8.15;;;2.20;;
78875;SDS011;68253;52.506;5.486;2023-05-20T01:09:29;7.25;;;1.90;;
78875;SDS011;68253;52.506;5.486;2023-05-20T01:12:00;8.95;;;2.90;;
78875;SDS011;68253;52.506;5.486;2023-05-20T01:14:32;8.18;;;2.40;;
78875;SDS011;68253;52.506;5.486;2023-05-20T01:17:02;8.35;;;1.77;;
78875;SDS011;68253;52.506;5.486;2023-05-20T01:19:34;7.38;;;2.40;;
78875;SDS011;68253;52.506;5.486;2023-05-20T01:22:09;7.82;;;2.40;;
78875;SDS011;68253;52.506;5.486;2023-05-20T01:24:42;6.90;;;1.83;;
78875;SDS011;68253;52.506;5.486;2023-05-20T01:27:10;7.28;;;1.98;;
78875;SDS011;68253;52.506;5.486;2023-05-20T01:29:40;8.40;;;2.20;;
78875;SDS011;68253;52.506;5.486;2023-05-20T01:32:54;6.38;;;1.70;;
78875;SDS011;68253;52.506;5.486;2023-05-20T01:34:59;7.82;;;2.20;;
78875;SDS011;68253;52.506;5.486;2023-05-20T01:37:27;9.27;;;2.15;;
78875;SDS011;68253;52.506;5.486;2023-05-20T01:39:54;8.98;;;2.45;;
78875;SDS011;68253;52.506;5.486;2023-05-20T01:42:21;8.38;;;2.03;;
78875;SDS011;68253;52.506;5.486;2023-05-20T01:44:48;7.13;;;2.03;;
78875;SDS011;68253;52.506;5.486;2023-05-20T01:47:14;7.57;;;2.13;;
78875;SDS011;68253;52.506;5.486;2023-05-20T01:49:40;7.45;;;2.15;;
78875;SDS011;68253;52.506;5.486;2023-05-20T01:52:07;10.45;;;2.58;;
78875;SDS011;68253;52.506;5.486;2023-05-20T01:54:34;7.55;;;2.30;;
78875;SDS011;68253;52.506;5.486;2023-05-20T01:57:00;8.50;;;2.22;;
78875;SDS011;68253;52.506;5.486;2023-05-20T01:59:27;7.38;;;2.20;;
78875;SDS011;68253;52.506;5.486;2023-05-20T02:01:53;6.32;;;2.03;;
78875;SDS011;68253;52.506;5.486;2023-05-20T02:04:19;8.40;;;2.30;;
78875;SDS011;68253;52.506;5.486;2023-05-20T02:06:47;8.77;;;2.25;;
78875;SDS011;68253;52.506;5.486;2023-05-20T02:09:13;8.05;;;2.30;;
78875;SDS011;68253;52.506;5.486;2023-05-20T02:11:40;7.13;;;1.73;;
78875;SDS011;68253;52.506;5.486;2023-05-20T02:14:06;7.68;;;2.28;;
78875;SDS011;68253;52.506;5.486;2023-05-20T02:16:32;6.78;;;1.85;;
78875;SDS011;68253;52.506;5.486;2023-05-20T02:18:58;7.38;;;2.10;;
78875;SDS011;68253;52.506;5.486;2023-05-20T02:21:27;7.30;;;2.10;;
78875;SDS011;68253;52.506;5.486;2023-05-20T02:23:53;7.50;;;2.17;;
78875;SDS011;68253;52.506;5.486;2023-05-20T02:26:19;5.88;;;1.73;;
78875;SDS011;68253;52.506;5.486;2023-05-20T02:28:45;7.03;;;2.20;;
78875;SDS011;68253;52.506;5.486;2023-05-20T02:31:15;5.72;;;1.88;;
78875;SDS011;68253;52.506;5.486;2023-05-20T02:33:41;11.32;;;2.97;;
78875;SDS011;68253;52.506;5.486;2023-05-20T02:36:07;8.68;;;2.00;;
78875;SDS011;68253;52.506;5.486;2023-05-20T02:38:34;6.57;;;1.95;;
78875;SDS011;68253;52.506;5.486;2023-05-20T02:41:00;7.72;;;2.17;;
78875;SDS011;68253;52.506;5.486;2023-05-20T02:43:29;6.60;;;1.83;;
78875;SDS011;68253;52.506;5.486;2023-05-20T02:45:59;7.10;;;2.08;;
78875;SDS011;68253;52.506;5.486;2023-05-20T02:48:25;8.38;;;2.00;;
78875;SDS011;68253;52.506;5.486;2023-05-20T02:50:51;8.75;;;2.85;;
78875;SDS011;68253;52.506;5.486;2023-05-20T02:53:18;9.75;;;2.65;;
78875;SDS011;68253;52.506;5.486;2023-05-20T02:55:45;7.95;;;2.10;;
78875;SDS011;68253;52.506;5.486;2023-05-20T02:58:14;6.90;;;2.08;;
78875;SDS011;68253;52.506;5.486;2023-05-20T03:00:40;7.25;;;2.10;;
78875;SDS011;68253;52.506;5.486;2023-05-20T03:03:06;8.77;;;2.50;;
78875;SDS011;68253;52.506;5.486;2023-05-20T03:05:35;9.10;;;2.20;;
78875;SDS011;68253;52.506;5.486;2023-05-20T03:08:07;7.40;;;2.30;;
78875;SDS011;68253;52.506;5.486;2023-05-20T03:10:35;8.48;;;2.30;;
78875;SDS011;68253;52.506;5.486;2023-05-20T03:13:05;6.72;;;2.05;;
78875;SDS011;68253;52.506;5.486;2023-05-20T03:15:36;8.75;;;2.60;;
78875;SDS011;68253;52.506;5.486;2023-05-20T03:18:03;9.40;;;2.08;;
78875;SDS011;68253;52.506;5.486;2023-05-20T03:20:29;9.90;;;2.53;;
78875;SDS011;68253;52.506;5.486;2023-05-20T03:22:57;12.48;;;3.00;;
78875;SDS011;68253;52.506;5.486;2023-05-20T03:25:24;8.63;;;2.45;;
78875;SDS011;68253;52.506;5.486;2023-05-20T03:27:51;8.15;;;2.50;;
78875;SDS011;68253;52.506;5.486;2023-05-20T03:30:17;7.78;;;2.40;;
78875;SDS011;68253;52.506;5.486;2023-05-20T03:32:43;6.85;;;2.35;;
78875;SDS011;68253;52.506;5.486;2023-05-20T03:35:09;7.82;;;2.10;;
78875;SDS011;68253;52.506;5.486;2023-05-20T03:37:36;7.30;;;2.33;;
78875;SDS011;68253;52.506;5.486;2023-05-20T03:40:03;9.75;;;2.20;;
78875;SDS011;68253;52.506;5.486;2023-05-20T03:42:33;7.32;;;2.40;;
78875;SDS011;68253;52.506;5.486;2023-05-20T03:44:59;9.75;;;2.10;;
78875;SDS011;68253;52.506;5.486;2023-05-20T03:47:28;8.23;;;2.20;;
78875;SDS011;68253;52.506;5.486;2023-05-20T03:49:54;7.35;;;2.38;;
78875;SDS011;68253;52.506;5.486;2023-05-20T03:52:20;7.82;;;2.25;;
78875;SDS011;68253;52.506;5.486;2023-05-20T03:54:47;6.43;;;1.90;;
78875;SDS011;68253;52.506;5.486;2023-05-20T03:57:13;6.93;;;2.10;;
78875;SDS011;68253;52.506;5.486;2023-05-20T03:59:39;9.43;;;2.40;;
78875;SDS011;68253;52.506;5.486;2023-05-20T04:02:08;7.95;;;2.38;;
78875;SDS011;68253;52.506;5.486;2023-05-20T04:04:35;9.30;;;2.28;;
78875;SDS011;68253;52.506;5.486;2023-05-20T04:07:01;9.23;;;2.40;;
78875;SDS011;68253;52.506;5.486;2023-05-20T04:09:30;9.20;;;2.63;;
78875;SDS011;68253;52.506;5.486;2023-05-20T04:11:56;6.25;;;2.03;;
78875;SDS011;68253;52.506;5.486;2023-05-20T04:14:22;6.93;;;2.17;;
78875;SDS011;68253;52.506;5.486;2023-05-20T04:16:48;8.00;;;1.80;;
78875;SDS011;68253;52.506;5.486;2023-05-20T04:19:16;7.30;;;1.88;;
78875;SDS011;68253;52.506;5.486;2023-05-20T04:21:44;8.18;;;2.30;;
78875;SDS011;68253;52.506;5.486;2023-05-20T04:24:10;7.70;;;2.03;;
78875;SDS011;68253;52.506;5.486;2023-05-20T04:26:37;8.68;;;2.33;;
78875;SDS011;68253;52.506;5.486;2023-05-20T04:29:03;7.20;;;2.10;;
78875;SDS011;68253;52.506;5.486;2023-05-20T04:31:29;9.23;;;2.55;;
78875;SDS011;68253;52.506;5.486;2023-05-20T04:33:56;7.82;;;1.90;;
78875;SDS011;68253;52.506;5.486;2023-05-20T04:36:22;7.85;;;2.10;;
78875;SDS011;68253;52.506;5.486;2023-05-20T04:38:54;7.05;;;2.13;;
78875;SDS011;68253;52.506;5.486;2023-05-20T04:41:20;5.95;;;1.85;;
78875;SDS011;68253;52.506;5.486;2023-05-20T04:43:47;7.15;;;2.45;;
78875;SDS011;68253;52.506;5.486;2023-05-20T04:46:14;8.40;;;2.53;;
78875;SDS011;68253;52.506;5.486;2023-05-20T04:48:41;6.47;;;2.10;;
78875;SDS011;68253;52.506;5.486;2023-05-20T04:51:08;8.52;;;2.50;;
78875;SDS011;68253;52.506;5.486;2023-05-20T04:53:35;7.93;;;2.10;;
78875;SDS011;68253;52.506;5.486;2023-05-20T04:56:01;9.00;;;2.45;;
78875;SDS011;68253;52.506;5.486;2023-05-20T04:58:29;6.80;;;2.50;;
78875;SDS011;68253;52.506;5.486;2023-05-20T05:00:56;9.68;;;2.40;;
78875;SDS011;68253;52.506;5.486;2023-05-20T05:03:22;7.15;;;1.85;;
78875;SDS011;68253;52.506;5.486;2023-05-20T05:05:48;8.27;;;2.38;;
78875;SDS011;68253;52.506;5.486;2023-05-20T05:08:14;8.32;;;2.50;;
78875;SDS011;68253;52.506;5.486;2023-05-20T05:10:47;8.25;;;2.67;;
78875;SDS011;68253;52.506;5.486;2023-05-20T05:13:13;5.22;;;1.80;;
78875;SDS011;68253;52.506;5.486;2023-05-20T05:15:39;8.07;;;2.33;;
78875;SDS011;68253;52.506;5.486;2023-05-20T05:18:05;8.38;;;2.65;;
78875;SDS011;68253;52.506;5.486;2023-05-20T05:20:33;7.57;;;2.10;;
78875;SDS011;68253;52.506;5.486;2023-05-20T05:22:59;6.43;;;2.28;;
78875;SDS011;68253;52.506;5.486;2023-05-20T05:25:25;7.65;;;1.98;;
78875;SDS011;68253;52.506;5.486;2023-05-20T05:27:52;8.05;;;2.20;;
78875;SDS011;68253;52.506;5.486;2023-05-20T05:30:20;8.13;;;2.58;;
78875;SDS011;68253;52.506;5.486;2023-05-20T05:32:46;10.05;;;2.38;;
78875;SDS011;68253;52.506;5.486;2023-05-20T05:35:13;7.57;;;2.17;;
78875;SDS011;68253;52.506;5.486;2023-05-20T05:37:39;7.75;;;2.30;;
78875;SDS011;68253;52.506;5.486;2023-05-20T05:40:05;7.60;;;1.65;;
78875;SDS011;68253;52.506;5.486;2023-05-20T05:42:32;6.97;;;2.03;;
78875;SDS011;68253;52.506;5.486;2023-05-20T05:45:00;7.13;;;1.92;;
78875;SDS011;68253;52.506;5.486;2023-05-20T05:47:26;9.32;;;2.95;;
78875;SDS011;68253;52.506;5.486;2023-05-20T05:49:57;7.07;;;2.20;;
78875;SDS011;68253;52.506;5.486;2023-05-20T05:52:25;7.05;;;2.40;;
78875;SDS011;68253;52.506;5.486;2023-05-20T05:54:52;7.47;;;2.45;;
78875;SDS011;68253;52.506;5.486;2023-05-20T05:57:19;8.00;;;2.60;;
78875;SDS011;68253;52.506;5.486;2023-05-20T05:59:45;6.30;;;1.85;;
78875;SDS011;68253;52.506;5.486;2023-05-20T06:02:11;6.78;;;1.88;;
78875;SDS011;68253;52.506;5.486;2023-05-20T06:04:39;6.78;;;1.92;;
78875;SDS011;68253;52.506;5.486;2023-05-20T06:07:06;6.22;;;1.95;;
78875;SDS011;68253;52.506;5.486;2023-05-20T06:09:32;7.18;;;2.35;;
78875;SDS011;68253;52.506;5.486;2023-05-20T06:11:58;7.43;;;2.35;;
78875;SDS011;68253;52.506;5.486;2023-05-20T06:14:25;6.13;;;2.03;;
78875;SDS011;68253;52.506;5.486;2023-05-20T06:16:51;8.10;;;2.20;;
78875;SDS011;68253;52.506;5.486;2023-05-20T06:19:17;7.10;;;2.20;;
78875;SDS011;68253;52.506;5.486;2023-05-20T06:21:44;7.03;;;1.92;;
78875;SDS011;68253;52.506;5.486;2023-05-20T06:24:10;8.02;;;1.95;;
78875;SDS011;68253;52.506;5.486;2023-05-20T06:26:37;6.85;;;2.00;;
78875;SDS011;68253;52.506;5.486;2023-05-20T06:29:04;6.95;;;1.77;;
78875;SDS011;68253;52.506;5.486;2023-05-20T06:31:31;6.70;;;2.40;;
78875;SDS011;68253;52.506;5.486;2023-05-20T06:33:57;7.75;;;2.15;;
78875;SDS011;68253;52.506;5.486;2023-05-20T06:36:23;5.97;;;2.30;;
78875;SDS011;68253;52.506;5.486;2023-05-20T06:38:49;7.28;;;2.25;;
78875;SDS011;68253;52.506;5.486;2023-05-20T06:41:16;5.28;;;1.70;;
78875;SDS011;68253;52.506;5.486;2023-05-20T06:43:42;7.38;;;1.98;;
78875;SDS011;68253;52.506;5.486;2023-05-20T06:46:15;7.85;;;2.30;;
78875;SDS011;68253;52.506;5.486;2023-05-20T06:48:49;8.80;;;2.10;;
78875;SDS011;68253;52.506;5.486;2023-05-20T06:51:16;8.73;;;1.90;;
78875;SDS011;68253;52.506;5.486;2023-05-20T06:53:45;7.18;;;1.63;;
78875;SDS011;68253;52.506;5.486;2023-05-20T06:56:11;5.43;;;1.70;;
78875;SDS011;68253;52.506;5.486;2023-05-20T06:58:37;6.57;;;1.90;;
78875;SDS011;68253;52.506;5.486;2023-05-20T07:01:03;5.93;;;1.52;;
78875;SDS011;68253;52.506;5.486;2023-05-20T07:03:30;7.43;;;1.92;;
78875;SDS011;68253;52.506;5.486;2023-05-20T07:05:56;3.58;;;1.40;;
78875;SDS011;68253;52.506;5.486;2023-05-20T07:08:23;6.63;;;1.73;;
78875;SDS011;68253;52.506;5.486;2023-05-20T07:10:49;6.68;;;1.88;;
78875;SDS011;68253;52.506;5.486;2023-05-20T07:13:20;4.95;;;1.70;;
78875;SDS011;68253;52.506;5.486;2023-05-20T07:15:49;6.90;;;1.80;;
78875;SDS011;68253;52.506;5.486;2023-05-20T07:18:16;8.18;;;1.80;;
78875;SDS011;68253;52.506;5.486;2023-05-20T07:20:45;6.75;;;1.88;;
78875;SDS011;68253;52.506;5.486;2023-05-20T07:23:24;6.90;;;1.90;;
78875;SDS011;68253;52.506;5.486;2023-05-20T07:25:52;6.10;;;1.38;;
78875;SDS011;68253;52.506;5.486;2023-05-20T07:28:19;5.35;;;1.50;;
78875;SDS011;68253;52.506;5.486;2023-05-20T07:30:46;4.35;;;1.30;;
78875;SDS011;68253;52.506;5.486;2023-05-20T07:33:19;5.47;;;1.35;;
78875;SDS011;68253;52.506;5.486;2023-05-20T07:35:46;6.15;;;1.52;;
78875;SDS011;68253;52.506;5.486;2023-05-20T07:38:13;4.15;;;1.20;;
78875;SDS011;68253;52.506;5.486;2023-05-20T07:40:41;5.32;;;1.50;;
78875;SDS011;68253;52.506;5.486;2023-05-20T07:43:08;6.45;;;1.33;;
78875;SDS011;68253;52.506;5.486;2023-05-20T07:45:35;7.40;;;1.80;;
78875;SDS011;68253;52.506;5.486;2023-05-20T07:48:02;6.40;;;1.40;;
78875;SDS011;68253;52.506;5.486;2023-05-20T07:50:29;5.18;;;1.52;;
78875;SDS011;68253;52.506;5.486;2023-05-20T07:52:55;4.97;;;1.52;;
78875;SDS011;68253;52.506;5.486;2023-05-20T07:55:23;5.80;;;1.60;;
78875;SDS011;68253;52.506;5.486;2023-05-20T07:57:50;6.60;;;1.70;;
78875;SDS011;68253;52.506;5.486;2023-05-20T08:00:17;5.05;;;1.48;;
78875;SDS011;68253;52.506;5.486;2023-05-20T08:02:44;5.97;;;1.83;;
78875;SDS011;68253;52.506;5.486;2023-05-20T08:05:13;4.68;;;1.25;;
78875;SDS011;68253;52.506;5.486;2023-05-20T08:07:39;5.47;;;1.48;;
78875;SDS011;68253;52.506;5.486;2023-05-20T08:10:06;5.97;;;1.70;;
78875;SDS011;68253;52.506;5.486;2023-05-20T08:12:33;4.55;;;1.20;;
78875;SDS011;68253;52.506;5.486;2023-05-20T08:14:59;4.72;;;1.38;;
78875;SDS011;68253;52.506;5.486;2023-05-20T08:17:26;8.65;;;1.42;;
78875;SDS011;68253;52.506;5.486;2023-05-20T08:19:52;5.65;;;1.50;;
78875;SDS011;68253;52.506;5.486;2023-05-20T08:22:19;3.45;;;0.98;;
78875;SDS011;68253;52.506;5.486;2023-05-20T08:24:45;4.82;;;1.27;;
78875;SDS011;68253;52.506;5.486;2023-05-20T08:27:11;4.63;;;1.20;;
78875;SDS011;68253;52.506;5.486;2023-05-20T08:29:37;6.38;;;1.25;;
78875;SDS011;68253;52.506;5.486;2023-05-20T08:32:04;4.22;;;1.25;;
78875;SDS011;68253;52.506;5.486;2023-05-20T08:34:30;5.38;;;1.30;;
78875;SDS011;68253;52.506;5.486;2023-05-20T08:36:56;3.40;;;0.90;;
78875;SDS011;68253;52.506;5.486;2023-05-20T08:39:23;4.70;;;1.38;;
78875;SDS011;68253;52.506;5.486;2023-05-20T08:41:50;5.28;;;1.60;;
78875;SDS011;68253;52.506;5.486;2023-05-20T08:44:16;4.30;;;1.40;;
78875;SDS011;68253;52.506;5.486;2023-05-20T08:46:46;5.07;;;1.33;;
78875;SDS011;68253;52.506;5.486;2023-05-20T08:49:13;5.78;;;1.10;;
78875;SDS011;68253;52.506;5.486;2023-05-20T08:51:39;4.15;;;1.20;;
78875;SDS011;68253;52.506;5.486;2023-05-20T08:54:07;4.47;;;1.30;;
78875;SDS011;68253;52.506;5.486;2023-05-20T08:56:34;5.93;;;1.60;;
78875;SDS011;68253;52.506;5.486;2023-05-20T08:59:02;7.22;;;1.30;;
78875;SDS011;68253;52.506;5.486;2023-05-20T09:01:28;4.10;;;1.17;;
78875;SDS011;68253;52.506;5.486;2023-05-20T09:03:54;6.50;;;1.48;;
78875;SDS011;68253;52.506;5.486;2023-05-20T09:06:21;3.97;;;1.08;;
78875;SDS011;68253;52.506;5.486;2023-05-20T09:08:48;6.50;;;1.30;;
78875;SDS011;68253;52.506;5.486;2023-05-20T09:11:15;5.53;;;1.35;;
78875;SDS011;68253;52.506;5.486;2023-05-20T09:13:42;6.57;;;1.75;;
78875;SDS011;68253;52.506;5.486;2023-05-20T09:16:08;3.95;;;1.08;;
78875;SDS011;68253;52.506;5.486;2023-05-20T09:18:38;4.00;;;1.17;;
78875;SDS011;68253;52.506;5.486;2023-05-20T09:21:05;3.65;;;1.02;;
78875;SDS011;68253;52.506;5.486;2023-05-20T09:23:31;5.25;;;1.20;;
78875;SDS011;68253;52.506;5.486;2023-05-20T09:25:59;3.83;;;1.10;;
78875;SDS011;68253;52.506;5.486;2023-05-20T09:28:26;5.75;;;1.30;;
78875;SDS011;68253;52.506;5.486;2023-05-20T09:30:59;6.47;;;1.60;;
78875;SDS011;68253;52.506;5.486;2023-05-20T09:33:26;4.82;;;1.10;;
78875;SDS011;68253;52.506;5.486;2023-05-20T09:36:01;6.32;;;1.75;;
78875;SDS011;68253;52.506;5.486;2023-05-20T09:38:33;3.70;;;1.08;;
78875;SDS011;68253;52.506;5.486;2023-05-20T09:41:12;4.22;;;1.20;;
78875;SDS011;68253;52.506;5.486;2023-05-20T09:43:39;5.63;;;1.33;;
78875;SDS011;68253;52.506;5.486;2023-05-20T09:46:06;4.43;;;1.10;;
78875;SDS011;68253;52.506;5.486;2023-05-20T09:48:36;5.85;;;1.52;;
78875;SDS011;68253;52.506;5.486;2023-05-20T09:51:03;4.13;;;1.35;;
78875;SDS011;68253;52.506;5.486;2023-05-20T09:55:57;4.03;;;1.00;;
78875;SDS011;68253;52.506;5.486;2023-05-20T09:58:23;4.80;;;1.25;;
78875;SDS011;68253;52.506;5.486;2023-05-20T10:00:50;4.25;;;1.20;;
78875;SDS011;68253;52.506;5.486;2023-05-20T10:03:17;6.85;;;1.42;;
78875;SDS011;68253;52.506;5.486;2023-05-20T10:11:34;5.32;;;1.33;;
78875;SDS011;68253;52.506;5.486;2023-05-20T10:16:55;6.75;;;1.70;;
78875;SDS011;68253;52.506;5.486;2023-05-20T10:19:32;5.32;;;1.40;;
78875;SDS011;68253;52.506;5.486;2023-05-20T10:22:00;5.57;;;1.40;;
78875;SDS011;68253;52.506;5.486;2023-05-20T10:24:31;7.38;;;1.80;;
78875;SDS011;68253;52.506;5.486;2023-05-20T10:27:00;3.95;;;1.40;;
78875;SDS011;68253;52.506;5.486;2023-05-20T10:29:27;5.32;;;1.48;;
78875;SDS011;68253;52.506;5.486;2023-05-20T10:31:54;4.70;;;1.30;;
78875;SDS011;68253;52.506;5.486;2023-05-20T10:34:21;3.20;;;1.10;;
78875;SDS011;68253;52.506;5.486;2023-05-20T10:39:26;8.95;;;2.22;;
78875;SDS011;68253;52.506;5.486;2023-05-20T10:42:06;5.63;;;1.55;;
78875;SDS011;68253;52.506;5.486;2023-05-20T10:44:42;4.47;;;1.17;;
78875;SDS011;68253;52.506;5.486;2023-05-20T10:47:10;6.97;;;1.77;;
78875;SDS011;68253;52.506;5.486;2023-05-20T10:49:45;6.18;;;1.38;;
78875;SDS011;68253;52.506;5.486;2023-05-20T10:52:12;5.18;;;1.38;;
78875;SDS011;68253;52.506;5.486;2023-05-20T10:54:42;6.28;;;1.40;;
78875;SDS011;68253;52.506;5.486;2023-05-20T10:57:10;6.53;;;1.38;;
78875;SDS011;68253;52.506;5.486;2023-05-20T10:59:37;5.15;;;1.30;;
78875;SDS011;68253;52.506;5.486;2023-05-20T11:02:03;4.13;;;1.10;;
78875;SDS011;68253;52.506;5.486;2023-05-20T11:04:29;4.55;;;0.95;;
78875;SDS011;68253;52.506;5.486;2023-05-20T11:06:57;7.88;;;1.92;;
78875;SDS011;68253;52.506;5.486;2023-05-20T11:09:23;7.20;;;1.60;;
78875;SDS011;68253;52.506;5.486;2023-05-20T11:11:52;4.35;;;1.42;;
78875;SDS011;68253;52.506;5.486;2023-05-20T11:14:20;6.05;;;1.45;;
78875;SDS011;68253;52.506;5.486;2023-05-20T11:16:50;7.70;;;1.45;;
78875;SDS011;68253;52.506;5.486;2023-05-20T11:19:17;5.25;;;1.50;;
78875;SDS011;68253;52.506;5.486;2023-05-20T11:21:44;6.25;;;1.50;;
78875;SDS011;68253;52.506;5.486;2023-05-20T11:24:11;6.38;;;1.40;;
78875;SDS011;68253;52.506;5.486;2023-05-20T11:26:38;8.80;;;1.55;;
78875;SDS011;68253;52.506;5.486;2023-05-20T11:29:04;4.68;;;1.20;;
78875;SDS011;68253;52.506;5.486;2023-05-20T11:31:31;5.53;;;1.40;;
78875;SDS011;68253;52.506;5.486;2023-05-20T11:34:00;5.63;;;1.25;;
78875;SDS011;68253;52.506;5.486;2023-05-20T11:36:28;6.20;;;1.38;;
78875;SDS011;68253;52.506;5.486;2023-05-20T11:38:59;4.20;;;1.38;;
78875;SDS011;68253;52.506;5.486;2023-05-20T11:41:26;5.65;;;1.30;;
78875;SDS011;68253;52.506;5.486;2023-05-20T11:43:56;12.10;;;3.28;;
78875;SDS011;68253;52.506;5.486;2023-05-20T11:46:25;10.38;;;3.25;;
78875;SDS011;68253;52.506;5.486;2023-05-20T11:48:55;5.80;;;1.60;;
78875;SDS011;68253;52.506;5.486;2023-05-20T11:51:28;6.55;;;1.67;;
78875;SDS011;68253;52.506;5.486;2023-05-20T11:53:58;7.65;;;1.80;;
78875;SDS011;68253;52.506;5.486;2023-05-20T11:56:28;7.82;;;2.10;;
78875;SDS011;68253;52.506;5.486;2023-05-20T11:58:58;7.35;;;2.10;;
78875;SDS011;68253;52.506;5.486;2023-05-20T12:01:26;7.28;;;1.75;;
78875;SDS011;68253;52.506;5.486;2023-05-20T12:03:54;5.35;;;1.40;;
78875;SDS011;68253;52.506;5.486;2023-05-20T12:06:20;5.53;;;1.67;;
78875;SDS011;68253;52.506;5.486;2023-05-20T12:08:46;6.28;;;1.33;;
78875;SDS011;68253;52.506;5.486;2023-05-20T12:11:13;4.72;;;1.48;;
78875;SDS011;68253;52.506;5.486;2023-05-20T12:13:39;7.72;;;1.80;;
78875;SDS011;68253;52.506;5.486;2023-05-20T12:16:05;4.57;;;1.40;;
78875;SDS011;68253;52.506;5.486;2023-05-20T12:18:32;7.18;;;1.50;;
78875;SDS011;68253;52.506;5.486;2023-05-20T12:20:58;6.43;;;1.88;;
78875;SDS011;68253;52.506;5.486;2023-05-20T12:23:25;5.80;;;1.50;;
78875;SDS011;68253;52.506;5.486;2023-05-20T12:25:51;6.10;;;1.50;;
78875;SDS011;68253;52.506;5.486;2023-05-20T12:28:18;7.95;;;2.63;;
78875;SDS011;68253;52.506;5.486;2023-05-20T12:30:44;5.78;;;1.70;;
78875;SDS011;68253;52.506;5.486;2023-05-20T12:33:10;4.53;;;1.38;;
78875;SDS011;68253;52.506;5.486;2023-05-20T12:38:03;4.30;;;1.30;;
78875;SDS011;68253;52.506;5.486;2023-05-20T12:40:30;6.68;;;1.90;;
78875;SDS011;68253;52.506;5.486;2023-05-20T12:42:56;4.05;;;1.30;;
78875;SDS011;68253;52.506;5.486;2023-05-20T12:45:23;4.68;;;1.52;;
78875;SDS011;68253;52.506;5.486;2023-05-20T12:47:49;4.45;;;1.02;;
78875;SDS011;68253;52.506;5.486;2023-05-20T12:50:16;7.03;;;2.47;;
78875;SDS011;68253;52.506;5.486;2023-05-20T12:52:42;2.78;;;1.05;;
78875;SDS011;68253;52.506;5.486;2023-05-20T12:55:08;4.80;;;1.40;;
78875;SDS011;68253;52.506;5.486;2023-05-20T12:57:38;5.32;;;1.30;;
78875;SDS011;68253;52.506;5.486;2023-05-20T13:00:06;7.45;;;2.00;;
78875;SDS011;68253;52.506;5.486;2023-05-20T13:02:33;6.32;;;1.60;;
78875;SDS011;68253;52.506;5.486;2023-05-20T13:04:59;4.53;;;1.55;;
78875;SDS011;68253;52.506;5.486;2023-05-20T13:07:25;4.50;;;1.40;;
78875;SDS011;68253;52.506;5.486;2023-05-20T13:09:51;6.22;;;1.90;;
78875;SDS011;68253;52.506;5.486;2023-05-20T13:12:18;5.30;;;1.70;;
78875;SDS011;68253;52.506;5.486;2023-05-20T13:14:44;4.35;;;1.23;;
78875;SDS011;68253;52.506;5.486;2023-05-20T13:17:10;3.72;;;1.30;;
78875;SDS011;68253;52.506;5.486;2023-05-20T13:19:36;6.80;;;1.50;;
78875;SDS011;68253;52.506;5.486;2023-05-20T13:22:03;5.63;;;1.40;;
78875;SDS011;68253;52.506;5.486;2023-05-20T13:24:30;5.80;;;1.50;;
78875;SDS011;68253;52.506;5.486;2023-05-20T13:26:58;3.00;;;1.10;;
78875;SDS011;68253;52.506;5.486;2023-05-20T13:29:26;4.13;;;1.30;;
78875;SDS011;68253;52.506;5.486;2023-05-20T13:31:52;5.75;;;1.50;;
78875;SDS011;68253;52.506;5.486;2023-05-20T13:34:18;6.93;;;1.77;;
78875;SDS011;68253;52.506;5.486;2023-05-20T13:36:45;5.72;;;1.60;;
78875;SDS011;68253;52.506;5.486;2023-05-20T13:39:13;5.90;;;1.40;;
78875;SDS011;68253;52.506;5.486;2023-05-20T13:41:39;6.55;;;1.25;;
78875;SDS011;68253;52.506;5.486;2023-05-20T13:44:06;6.22;;;1.50;;
78875;SDS011;68253;52.506;5.486;2023-05-20T13:46:32;5.13;;;1.02;;
78875;SDS011;68253;52.506;5.486;2023-05-20T13:48:58;7.25;;;1.67;;
78875;SDS011;68253;52.506;5.486;2023-05-20T13:51:24;5.20;;;1.10;;
78875;SDS011;68253;52.506;5.486;2023-05-20T13:53:51;8.50;;;2.35;;
78875;SDS011;68253;52.506;5.486;2023-05-20T13:56:17;11.13;;;3.33;;
78875;SDS011;68253;52.506;5.486;2023-05-20T13:58:44;12.27;;;3.72;;
78875;SDS011;68253;52.506;5.486;2023-05-20T14:01:10;16.30;;;7.32;;
78875;SDS011;68253;52.506;5.486;2023-05-20T14:03:37;20.40;;;7.50;;
78875;SDS011;68253;52.506;5.486;2023-05-20T14:06:05;8.90;;;2.90;;
78875;SDS011;68253;52.506;5.486;2023-05-20T14:08:31;10.52;;;2.92;;
78875;SDS011;68253;52.506;5.486;2023-05-20T14:10:57;6.80;;;1.70;;
78875;SDS011;68253;52.506;5.486;2023-05-20T14:13:23;4.05;;;1.23;;
78875;SDS011;68253;52.506;5.486;2023-05-20T14:15:50;6.00;;;1.48;;
78875;SDS011;68253;52.506;5.486;2023-05-20T14:20:45;6.10;;;1.35;;
78875;SDS011;68253;52.506;5.486;2023-05-20T14:23:11;4.22;;;1.05;;
78875;SDS011;68253;52.506;5.486;2023-05-20T14:25:38;7.45;;;1.70;;
78875;SDS011;68253;52.506;5.486;2023-05-20T14:28:05;3.47;;;1.23;;
78875;SDS011;68253;52.506;5.486;2023-05-20T14:30:31;4.18;;;1.10;;
78875;SDS011;68253;52.506;5.486;2023-05-20T14:32:57;4.40;;;1.40;;
78875;SDS011;68253;52.506;5.486;2023-05-20T14:35:23;5.03;;;1.65;;
78875;SDS011;68253;52.506;5.486;2023-05-20T14:37:50;4.35;;;1.30;;
78875;SDS011;68253;52.506;5.486;2023-05-20T14:40:16;6.20;;;1.60;;
78875;SDS011;68253;52.506;5.486;2023-05-20T14:42:43;3.28;;;1.23;;
78875;SDS011;68253;52.506;5.486;2023-05-20T14:45:09;5.90;;;1.50;;
78875;SDS011;68253;52.506;5.486;2023-05-20T14:47:36;4.75;;;1.38;;
78875;SDS011;68253;52.506;5.486;2023-05-20T14:50:05;3.67;;;1.20;;
78875;SDS011;68253;52.506;5.486;2023-05-20T14:52:31;5.15;;;1.10;;
78875;SDS011;68253;52.506;5.486;2023-05-20T14:54:57;3.95;;;1.30;;
78875;SDS011;68253;52.506;5.486;2023-05-20T14:57:24;4.38;;;1.25;;
78875;SDS011;68253;52.506;5.486;2023-05-20T14:59:50;3.95;;;1.10;;
78875;SDS011;68253;52.506;5.486;2023-05-20T15:02:17;2.70;;;1.13;;
78875;SDS011;68253;52.506;5.486;2023-05-20T15:04:44;6.38;;;1.50;;
78875;SDS011;68253;52.506;5.486;2023-05-20T15:07:12;5.22;;;1.35;;